Time,TemperatureF,DewpointF,PressureIn,WindDirection,WindDirectionDegrees,WindSpeedMPH,WindSpeedGustMPH,Humidity,HourlyPrecipIn,Conditions,Clouds,dailyrainin,SoftwareType,DateUTC
2013-08-23 00:13:00,76.0,74.0,30.03,NNE,21,0.0,0.0,95,0.00,,,0.06,,2013-08-23 04:13:00,
2013-08-23 00:24:00,76.0,74.0,30.03,NNE,21,0.0,0.0,94,0.00,,,0.06,,2013-08-23 04:24:00,
2013-08-23 00:43:00,76.0,74.0,30.03,NNE,20,0.0,1.0,94,0.00,,,0.06,,2013-08-23 04:43:00,
2013-08-23 00:54:00,76.0,74.0,30.03,NNE,20,0.0,0.0,94,0.00,,,0.06,,2013-08-23 04:54:00,
2013-08-23 01:13:00,76.0,74.0,30.03,NNE,21,0.0,0.0,94,0.00,,,0.06,,2013-08-23 05:13:00,
2013-08-23 01:22:00,76.0,74.0,30.02,NNE,20,0.0,0.0,94,0.00,,,0.06,,2013-08-23 05:22:00,
2013-08-23 01:42:00,76.0,74.0,30.03,NNE,14,0.0,1.0,95,0.00,,,0.06,,2013-08-23 05:42:00,
2013-08-23 01:52:00,76.0,74.0,30.03,NNE,14,0.0,0.0,95,0.00,,,0.06,,2013-08-23 05:52:00,
2013-08-23 02:12:00,75.0,73.0,30.02,NNE,14,0.0,0.0,95,0.00,,,0.06,,2013-08-23 06:12:00,
2013-08-23 02:22:00,76.0,74.0,30.02,NNE,15,0.0,0.0,95,0.00,,,0.06,,2013-08-23 06:22:00,
2013-08-23 02:42:00,75.0,73.0,30.02,NNE,14,0.0,1.0,95,0.00,,,0.06,,2013-08-23 06:42:00,
2013-08-23 02:52:00,75.0,73.0,30.01,NNE,14,0.0,0.0,95,0.00,,,0.06,,2013-08-23 06:52:00,
2013-08-23 03:12:00,75.0,73.0,30.00,NNE,15,0.0,0.0,95,0.00,,,0.06,,2013-08-23 07:12:00,
2013-08-23 03:22:00,75.0,73.0,30.00,NNE,14,0.0,1.0,95,0.00,,,0.06,,2013-08-23 07:22:00,
2013-08-23 03:42:00,75.0,73.0,30.00,NNE,15,0.0,0.0,95,0.00,,,0.06,,2013-08-23 07:42:00,
2013-08-23 03:52:00,75.0,73.0,30.00,NNE,15,0.0,0.0,95,0.00,,,0.06,,2013-08-23 07:52:00,
2013-08-23 04:13:00,75.0,73.0,30.00,NNE,14,0.0,1.0,95,0.00,,,0.06,,2013-08-23 08:13:00,
2013-08-23 04:22:00,74.0,72.0,30.00,NNE,15,0.0,0.0,95,0.00,,,0.06,,2013-08-23 08:22:00,
2013-08-23 04:42:00,74.0,73.0,29.99,NNE,15,0.0,0.0,96,0.00,,,0.06,,2013-08-23 08:42:00,
2013-08-23 04:52:00,74.0,72.0,29.99,NNE,15,0.0,0.0,95,0.00,,,0.06,,2013-08-23 08:52:00,
2013-08-23 05:12:00,74.0,73.0,29.98,NNE,14,0.0,0.0,96,0.00,,,0.06,,2013-08-23 09:12:00,
2013-08-23 05:21:00,74.0,73.0,29.98,NNE,14,0.0,0.0,96,0.00,,,0.06,,2013-08-23 09:21:00,
2013-08-23 05:43:00,73.0,71.0,29.99,NNE,15,0.0,0.0,95,0.00,,,0.06,,2013-08-23 09:43:00,
2013-08-23 05:53:00,73.0,72.0,29.99,NNE,14,0.0,0.0,96,0.00,,,0.06,,2013-08-23 09:53:00,
2013-08-23 06:13:00,73.0,72.0,29.99,NNE,14,0.0,0.0,96,0.00,,,0.06,,2013-08-23 10:13:00,
2013-08-23 06:23:00,73.0,72.0,29.99,NNE,14,0.0,0.0,96,0.00,,,0.06,,2013-08-23 10:23:00,
2013-08-23 06:42:00,73.0,72.0,29.99,NNE,15,0.0,0.0,96,0.00,,,0.06,,2013-08-23 10:42:00,
2013-08-23 06:52:00,73.0,72.0,29.99,NNE,14,0.0,0.0,96,0.00,,,0.06,,2013-08-23 10:52:00,
2013-08-23 07:11:00,73.0,72.0,29.99,NNE,15,0.0,0.0,96,0.00,,,0.05,,2013-08-23 11:11:00,
2013-08-23 07:22:00,73.0,72.0,30.00,NNE,15,0.0,0.0,96,0.00,,,0.05,,2013-08-23 11:22:00,
2013-08-23 07:42:00,73.0,72.0,30.00,NNE,14,0.0,0.0,96,0.00,,,0.02,,2013-08-23 11:42:00,
2013-08-23 07:53:00,73.0,72.0,30.01,NNE,15,0.0,0.0,96,0.00,,,0.02,,2013-08-23 11:53:00,
2013-08-23 08:11:00,73.0,72.0,30.01,NNE,15,0.0,0.0,96,0.00,,,0.02,,2013-08-23 12:11:00,
2013-08-23 08:22:00,73.0,72.0,30.01,NNE,15,0.0,0.0,96,0.00,,,0.01,,2013-08-23 12:22:00,
2013-08-23 08:42:00,75.0,74.0,30.01,NNE,14,0.0,1.0,96,0.00,,,0.01,,2013-08-23 12:42:00,
2013-08-23 08:52:00,75.0,74.0,30.01,NNE,14,0.0,1.0,96,0.00,,,0.01,,2013-08-23 12:52:00,
2013-08-23 09:12:00,77.0,75.0,30.01,NNE,14,0.0,1.0,95,0.00,,,0.00,,2013-08-23 13:12:00,
2013-08-23 09:22:00,79.0,76.0,30.01,NNE,14,0.0,1.0,91,0.00,,,0.00,,2013-08-23 13:22:00,
2013-08-23 09:42:00,82.0,77.0,30.02,North,353,0.0,2.0,86,0.00,,,0.00,,2013-08-23 13:42:00,
2013-08-23 09:52:00,82.0,76.0,30.01,NNE,13,1.0,3.0,81,0.00,,,0.00,,2013-08-23 13:52:00,
2013-08-23 10:12:00,84.0,76.0,30.02,SSW,196,0.0,2.0,78,0.00,,,0.00,,2013-08-23 14:12:00,
2013-08-23 10:22:00,84.0,76.0,30.02,SW,218,1.0,3.0,78,0.00,,,0.00,,2013-08-23 14:22:00,
2013-08-23 10:42:00,86.0,76.0,30.02,NNE,17,0.0,2.0,73,0.00,,,0.00,,2013-08-23 14:42:00,
2013-08-23 10:52:00,87.0,78.0,30.02,NE,39,1.0,2.0,74,0.00,,,0.00,,2013-08-23 14:52:00,
2013-08-23 11:11:00,86.0,77.0,30.02,NNW,327,0.0,3.0,74,0.00,,,0.00,,2013-08-23 15:11:00,
2013-08-23 11:22:00,86.0,76.0,30.03,NE,46,0.0,5.0,72,0.00,,,0.00,,2013-08-23 15:22:00,
2013-08-23 11:44:00,86.0,77.0,30.02,ESE,102,0.0,3.0,74,0.00,,,0.00,,2013-08-23 15:44:00,
2013-08-23 11:54:00,87.0,76.0,30.02,NNE,31,1.0,3.0,70,0.00,,,0.00,,2013-08-23 15:54:00,
2013-08-23 12:14:00,87.0,76.0,30.01,NE,38,0.0,3.0,69,0.00,,,0.00,,2013-08-23 16:14:00,
2013-08-23 12:24:00,87.0,76.0,30.01,NNE,25,1.0,3.0,71,0.00,,,0.00,,2013-08-23 16:24:00,
2013-08-23 12:42:00,88.0,77.0,30.01,NNE,20,1.0,3.0,70,0.00,,,0.00,,2013-08-23 16:42:00,
2013-08-23 12:53:00,88.0,76.0,30.00,NNE,29,2.0,5.0,67,0.00,,,0.00,,2013-08-23 16:53:00,
2013-08-23 13:13:00,89.0,77.0,30.00,WSW,249,0.0,3.0,68,0.00,,,0.00,,2013-08-23 17:13:00,
2013-08-23 13:24:00,89.0,77.0,30.00,ENE,76,0.0,3.0,68,0.00,,,0.00,,2013-08-23 17:24:00,
2013-08-23 13:43:00,90.0,78.0,30.00,NNW,345,0.0,2.0,67,0.00,,,0.00,,2013-08-23 17:43:00,
2013-08-23 13:53:00,90.0,79.0,29.99,NNW,337,1.0,2.0,70,0.00,,,0.00,,2013-08-23 17:53:00,
2013-08-23 14:12:00,91.0,78.0,29.99,NNE,31,0.0,6.0,66,0.00,,,0.00,,2013-08-23 18:12:00,
2013-08-23 14:22:00,91.0,76.0,29.98,NW,322,1.0,5.0,62,0.00,,,0.00,,2013-08-23 18:22:00,
2013-08-23 14:42:00,90.0,76.0,29.98,North,350,0.0,3.0,64,0.00,,,0.00,,2013-08-23 18:42:00,
2013-08-23 14:52:00,90.0,77.0,29.97,NNE,17,0.0,3.0,66,0.00,,,0.00,,2013-08-23 18:52:00,
2013-08-23 15:12:00,89.0,76.0,29.97,NE,50,0.0,2.0,65,0.00,,,0.00,,2013-08-23 19:12:00,
2013-08-23 15:22:00,90.0,78.0,29.96,NE,46,0.0,2.0,67,0.00,,,0.00,,2013-08-23 19:22:00,
2013-08-23 15:42:00,91.0,75.0,29.95,NNE,23,1.0,3.0,60,0.00,,,0.00,,2013-08-23 19:42:00,
2013-08-23 15:52:00,91.0,77.0,29.95,NE,39,1.0,3.0,63,0.00,,,0.00,,2013-08-23 19:52:00,
2013-08-23 16:12:00,92.0,78.0,29.94,SSE,164,0.0,3.0,63,0.00,,,0.00,,2013-08-23 20:12:00,
2013-08-23 16:22:00,92.0,77.0,29.94,SE,141,1.0,2.0,62,0.00,,,0.00,,2013-08-23 20:22:00,
2013-08-23 16:42:00,93.0,76.0,29.93,SSE,154,0.0,3.0,58,0.00,,,0.00,,2013-08-23 20:42:00,
2013-08-23 16:52:00,93.0,75.0,29.93,South,187,0.0,2.0,56,0.00,,,0.00,,2013-08-23 20:52:00,
2013-08-23 17:12:00,92.0,77.0,29.94,South,171,1.0,7.0,62,0.00,,,0.00,,2013-08-23 21:12:00,
2013-08-23 17:22:00,91.0,77.0,29.94,West,260,0.0,5.0,64,0.00,,,0.00,,2013-08-23 21:22:00,
2013-08-23 17:44:00,89.0,77.0,29.94,SSW,198,2.0,9.0,68,0.00,,,0.00,,2013-08-23 21:44:00,
2013-08-23 17:54:00,88.0,77.0,29.94,West,259,0.0,6.0,70,0.00,,,0.00,,2013-08-23 21:54:00,
2013-08-23 18:13:00,87.0,76.0,29.95,SSW,206,1.0,3.0,71,0.00,,,0.00,,2013-08-23 22:13:00,
2013-08-23 18:24:00,87.0,77.0,29.94,SSE,166,2.0,8.0,73,0.00,,,0.00,,2013-08-23 22:24:00,
2013-08-23 18:43:00,85.0,76.0,29.94,SSE,158,0.0,5.0,75,0.00,,,0.00,,2013-08-23 22:43:00,
2013-08-23 18:53:00,84.0,76.0,29.95,SE,141,1.0,7.0,76,0.00,,,0.00,,2013-08-23 22:53:00,
2013-08-23 19:12:00,84.0,77.0,29.95,SSE,162,1.0,5.0,79,0.00,,,0.00,,2013-08-23 23:12:00,
2013-08-23 19:22:00,83.0,77.0,29.95,SSE,164,0.0,1.0,81,0.00,,,0.00,,2013-08-23 23:22:00,
2013-08-23 19:43:00,83.0,77.0,29.95,SSE,167,0.0,1.0,81,0.00,,,0.00,,2013-08-23 23:43:00,
2013-08-23 19:54:00,83.0,77.0,29.96,SSE,168,0.0,1.0,82,0.00,,,0.00,,2013-08-23 23:54:00,
2013-08-23 20:11:00,82.0,76.0,29.96,South,181,0.0,1.0,83,0.00,,,0.00,,2013-08-24 00:11:00,
2013-08-23 20:22:00,82.0,77.0,29.96,South,181,0.0,1.0,84,0.00,,,0.00,,2013-08-24 00:22:00,
2013-08-23 20:43:00,81.0,76.0,29.97,SE,137,0.0,1.0,85,0.00,,,0.00,,2013-08-24 00:43:00,
2013-08-23 20:53:00,81.0,76.0,29.97,SE,137,0.0,0.0,86,0.00,,,0.00,,2013-08-24 00:53:00,
2013-08-23 21:11:00,81.0,76.0,29.97,NNE,18,0.0,0.0,86,0.00,,,0.00,,2013-08-24 01:11:00,
2013-08-23 21:22:00,80.0,76.0,29.98,NNE,18,0.0,0.0,87,0.00,,,0.00,,2013-08-24 01:22:00,
2013-08-23 21:42:00,80.0,76.0,29.98,NNE,17,0.0,1.0,87,0.00,,,0.00,,2013-08-24 01:42:00,
2013-08-23 21:53:00,80.0,76.0,29.98,NNE,17,0.0,1.0,87,0.00,,,0.00,,2013-08-24 01:53:00,
2013-08-23 22:12:00,79.0,75.0,29.99,NNE,18,0.0,1.0,88,0.00,,,0.00,,2013-08-24 02:12:00,
2013-08-23 22:22:00,79.0,75.0,29.99,NNE,17,0.0,1.0,88,0.00,,,0.00,,2013-08-24 02:22:00,
2013-08-23 22:42:00,79.0,75.0,29.99,NNE,17,0.0,0.0,89,0.00,,,0.00,,2013-08-24 02:42:00,
2013-08-23 22:52:00,78.0,74.0,29.99,NNE,17,0.0,1.0,89,0.00,,,0.00,,2013-08-24 02:52:00,
2013-08-23 23:12:00,78.0,75.0,29.99,NNE,18,0.0,1.0,90,0.00,,,0.00,,2013-08-24 03:12:00,
2013-08-23 23:22:00,78.0,75.0,29.99,NNE,17,0.0,1.0,90,0.00,,,0.00,,2013-08-24 03:22:00,
2013-08-23 23:44:00,78.0,75.0,29.99,NNE,17,0.0,1.0,90,0.00,,,0.00,,2013-08-24 03:44:00,
2013-08-23 23:54:00,78.0,75.0,29.99,NNE,17,0.0,1.0,91,0.00,,,0.00,,2013-08-24 03:54:00,